Al Baha, Saudi Arabia

8:35 PM AST on July 31, 2014 (GMT +0300)
Al Baha (OEBA) Elev 5420 ft | 20.30 °N, 41.63 °E | Change Station

Current weather conditions updated 35 minutes ago

Scattered Clouds
Scattered Clouds
84 °F
Feels Like 86 °F
N
10
Wind Variable Wind from WNW

Tomorrow is forecast to be Cooler than today.

Today
High -- | Low -- °F
--% Chance of Precip.
Yesterday
High -- | Low -- °F
Precip. -- in
5:48 AM 6:51 PM
Waxing Crescent, 19% visible
Pressure 30.01 in
Visibility 6.2 miles
Clouds Scattered Clouds 3000 ft
Heat Index 86 °F
Dew Point 64 °F
Humidity 51%
Rainfall 0.00 in
Snow Depth Not available.
UV 0 out of 12
Pollen Not available.
Air Quality Not available.
Flu Activity Not available.
METAR OEBA 311700Z 29009KT 9999 SCT030 29/18 Q1016 NOSIG

More Conditions Fewer Conditions

Pressure 30.01 in
Visibility 6.2 miles
Clouds Scattered Clouds 3000 ft
Heat Index 86 °F
Dew Point 64 °F
Humidity 51%
Rainfall 0.00 in
Snow Depth Not available.
UV 0 out of 12
Pollen Not available.
Air Quality Not available.
Flu Activity Not available.
METAR OEBA 311700Z 29009KT 9999 SCT030 29/18 Q1016 NOSIG

More Conditions Fewer Conditions

10-Day Weather Forecast

Almanac

Astronomy

Jul. 31, 2014 Rise Set
Actual Time 5:48 AM AST 6:51 PM AST
Civil Twilight 5:24 AM AST 7:15 PM AST
Nautical Twilight 4:56 AM AST 7:42 PM AST
Astronomical Twilight 4:27 AM AST 8:11 PM AST
Moon 9:17 AM AST 9:34 PM AST
Length of Visible Light 13h 50m
Length of Day
13h 03m
Tomorrow will be 0m 50s shorter.
Waxing Crescent, 19% of the Moon is Illuminated
Today
Waxing Crescent
Aug 3
First Quarter
Aug 10
Full
Aug 17
Last Quarter
Aug 25
New

Today's Extremes

Country Highs Country Lows

Community

WunderPhotos

Upload Photos

1,739,385 photos uploaded!

Nearby

Snow Depth

Not available.

Earthquake Activity

City Distance Mag. Time & Date
No recent earthquake activity has been reported nearby.
Minimum magnitude displayed is 2.5.

Coastal Water Temperatures

Place Temperature
No Stations Reporting

Nearby Weather Stations

There are no personal weather stations in this area.